createdAt,value
2019-02-19T00:01:21.944Z,0.30
2019-02-19T00:03:50.393Z,0.30
2019-02-19T00:06:18.928Z,0.30
2019-02-19T00:08:47.367Z,0.20
2019-02-19T00:11:15.827Z,0.20
2019-02-19T00:13:44.268Z,0.20
2019-02-19T00:16:12.733Z,0.20
2019-02-19T00:18:41.174Z,0.20
2019-02-19T00:21:09.614Z,0.10
2019-02-19T00:23:38.155Z,0.00
2019-02-19T00:26:17.082Z,0.00
2019-02-19T00:28:45.540Z,-0.20
2019-02-19T00:31:13.990Z,-0.10
2019-02-19T00:33:42.528Z,-0.10
2019-02-19T00:36:11.013Z,-0.10
2019-02-19T00:38:39.496Z,-0.20
2019-02-19T00:41:08.020Z,-0.20
2019-02-19T00:43:36.463Z,-0.20
2019-02-19T00:46:04.930Z,-0.30
2019-02-19T00:48:33.372Z,-0.30
2019-02-19T00:51:01.838Z,-0.30
2019-02-19T00:53:30.350Z,-0.30
2019-02-19T00:55:58.790Z,-0.30
2019-02-19T00:58:27.259Z,-0.30
2019-02-19T01:00:55.779Z,-0.40
2019-02-19T01:03:24.257Z,-0.50
2019-02-19T01:05:52.937Z,-0.50
2019-02-19T01:08:21.475Z,-0.60
2019-02-19T01:10:49.999Z,-0.60
2019-02-19T01:13:18.434Z,-0.50
2019-02-19T01:15:46.895Z,-0.60
2019-02-19T01:18:15.354Z,-0.50
2019-02-19T01:20:43.825Z,-0.50
2019-02-19T01:23:12.403Z,-0.50
2019-02-19T01:25:40.878Z,-0.60
2019-02-19T01:28:09.442Z,-0.60
2019-02-19T01:30:37.902Z,-0.60
2019-02-19T01:33:06.432Z,-0.60
2019-02-19T01:35:54.215Z,-0.60
2019-02-19T01:38:22.690Z,-0.70
2019-02-19T01:40:51.135Z,-0.70
2019-02-19T01:43:19.674Z,-0.70
2019-02-19T01:45:48.122Z,-0.70
2019-02-19T01:48:16.567Z,-0.70
2019-02-19T01:50:45.033Z,-0.70
2019-02-19T01:53:13.588Z,-0.70
2019-02-19T01:55:42.060Z,-0.70
2019-02-19T01:58:10.503Z,-0.70
2019-02-19T02:00:39.017Z,-0.70
2019-02-19T02:03:07.550Z,-0.70
2019-02-19T02:05:36.062Z,-0.70
2019-02-19T02:08:04.530Z,-0.70
2019-02-19T02:10:32.975Z,-0.70
2019-02-19T02:13:01.409Z,-0.80
2019-02-19T02:15:29.866Z,-0.80
2019-02-19T02:17:58.379Z,-0.90
2019-02-19T02:20:26.907Z,-0.90
2019-02-19T02:22:55.349Z,-0.90
2019-02-19T02:25:23.791Z,-0.90
2019-02-19T02:27:52.265Z,-1.00
2019-02-19T02:30:20.705Z,-1.00
2019-02-19T02:32:49.165Z,-1.00
2019-02-19T02:35:17.599Z,-1.00
2019-02-19T02:37:46.038Z,-1.00
2019-02-19T02:40:14.502Z,-1.00
2019-02-19T02:42:42.944Z,-1.00
2019-02-19T02:45:11.401Z,-1.00
2019-02-19T02:47:39.875Z,-1.00
2019-02-19T02:50:08.482Z,-1.00
2019-02-19T02:52:36.919Z,-1.00
2019-02-19T02:55:05.852Z,-0.90
2019-02-19T02:57:34.311Z,-1.00
2019-02-19T03:00:02.768Z,-1.10
2019-02-19T03:02:31.370Z,-1.20
2019-02-19T03:04:59.903Z,-1.20
2019-02-19T03:10:13.038Z,-1.20
2019-02-19T03:12:41.793Z,-1.20
2019-02-19T03:15:10.880Z,-1.20
2019-02-19T03:17:39.392Z,-1.10
2019-02-19T03:20:08.424Z,-1.10
2019-02-19T03:22:36.942Z,-1.20
2019-02-19T03:25:05.851Z,-1.30
2019-02-19T03:27:34.360Z,-1.40
2019-02-19T03:30:03.175Z,-1.50
2019-02-19T03:32:31.629Z,-1.60
2019-02-19T03:35:00.456Z,-1.60
2019-02-19T03:37:28.976Z,-1.60
2019-02-19T03:39:57.520Z,-1.60
2019-02-19T03:42:25.970Z,-1.60
2019-02-19T03:44:54.416Z,-1.60
2019-02-19T03:47:22.882Z,-1.50
2019-02-19T03:49:51.332Z,-1.50
2019-02-19T03:52:19.844Z,-1.50
2019-02-19T03:54:48.438Z,-1.50
2019-02-19T03:57:17.253Z,-1.50
2019-02-19T03:59:45.852Z,-1.50
2019-02-19T04:02:14.366Z,-1.50
2019-02-19T04:04:42.828Z,-1.50
2019-02-19T04:07:11.264Z,-1.50
2019-02-19T04:09:59.067Z,-1.60
2019-02-19T04:12:27.504Z,-1.60
2019-02-19T04:15:15.320Z,-1.60
2019-02-19T04:17:43.839Z,-1.60
2019-02-19T04:20:12.379Z,-1.60
2019-02-19T04:22:40.846Z,-1.60
2019-02-19T04:25:09.427Z,-1.60
2019-02-19T04:27:39.243Z,-1.60
2019-02-19T04:30:09.451Z,-1.60
2019-02-19T04:32:38.252Z,-1.70
2019-02-19T04:35:06.999Z,-1.90
2019-02-19T04:37:35.510Z,-1.90
2019-02-19T04:40:05.844Z,-1.90
2019-02-19T04:42:35.283Z,-1.80
2019-02-19T04:45:05.186Z,-1.80
2019-02-19T04:47:34.568Z,-2.00
2019-02-19T04:50:03.108Z,-2.10
2019-02-19T04:52:31.593Z,-2.10
2019-02-19T04:55:00.291Z,-2.20
2019-02-19T04:57:28.739Z,-2.30
2019-02-19T04:59:57.178Z,-2.30
2019-02-19T05:02:25.647Z,-2.40
2019-02-19T05:04:54.170Z,-2.50
2019-02-19T05:07:22.637Z,-2.30
2019-02-19T05:09:51.086Z,-2.30
2019-02-19T05:12:19.526Z,-2.20
2019-02-19T05:14:47.994Z,-2.10
2019-02-19T05:17:16.494Z,-2.10
2019-02-19T05:19:45.085Z,-2.10
2019-02-19T05:22:13.522Z,-2.00
2019-02-19T05:24:41.993Z,-1.90
2019-02-19T05:27:10.524Z,-1.90
2019-02-19T05:29:38.966Z,-1.80
2019-02-19T05:32:07.438Z,-1.80
2019-02-19T05:34:35.884Z,-1.90
2019-02-19T05:37:04.417Z,-1.90
2019-02-19T05:39:32.859Z,-1.80
2019-02-19T05:42:01.311Z,-1.70
2019-02-19T05:44:29.946Z,-1.70
2019-02-19T05:46:58.425Z,-1.70
2019-02-19T05:49:26.954Z,-1.70
2019-02-19T05:51:55.394Z,-1.70
2019-02-19T05:54:23.842Z,-1.70
2019-02-19T05:56:52.305Z,-1.70
2019-02-19T05:59:20.751Z,-1.80
2019-02-19T06:01:49.210Z,-1.80
2019-02-19T06:04:20.050Z,-1.80
2019-02-19T06:06:48.532Z,-1.80
2019-02-19T06:09:16.976Z,-1.90
2019-02-19T06:11:45.423Z,-1.80
2019-02-19T06:14:13.959Z,-1.80
2019-02-19T06:16:42.404Z,-1.70
2019-02-19T06:19:10.875Z,-1.60
2019-02-19T06:21:39.387Z,-1.50
2019-02-19T06:24:07.924Z,-1.40
2019-02-19T06:26:36.705Z,-1.40
2019-02-19T06:29:05.306Z,-1.40
2019-02-19T06:31:33.806Z,-1.30
2019-02-19T06:34:02.246Z,-1.30
2019-02-19T06:36:30.737Z,-1.30
2019-02-19T06:38:59.251Z,-1.20
2019-02-19T06:41:28.606Z,-1.10
2019-02-19T06:43:57.047Z,-1.00
2019-02-19T06:46:25.526Z,-0.90
2019-02-19T06:48:54.003Z,-0.80
2019-02-19T06:51:22.526Z,-0.90
2019-02-19T06:53:50.968Z,-1.00
2019-02-19T06:56:19.440Z,-1.10
2019-02-19T06:59:07.286Z,-1.10
2019-02-19T07:01:53.919Z,-1.00
2019-02-19T07:04:26.975Z,-0.80
2019-02-19T07:06:56.472Z,-0.50
2019-02-19T07:09:24.964Z,-0.20
2019-02-19T07:11:53.395Z,0.10
2019-02-19T07:14:21.918Z,0.50
2019-02-19T07:16:50.369Z,0.60
2019-02-19T07:19:18.902Z,0.90
2019-02-19T07:21:47.348Z,1.20
2019-02-19T07:24:15.790Z,1.40
2019-02-19T07:26:44.256Z,1.60
2019-02-19T07:29:12.731Z,1.80
2019-02-19T07:31:41.267Z,1.90
2019-02-19T07:34:09.707Z,2.10
2019-02-19T07:36:38.141Z,2.20
2019-02-19T07:39:06.668Z,2.30
2019-02-19T07:41:35.143Z,2.50
2019-02-19T07:44:04.582Z,2.60
2019-02-19T07:46:33.278Z,2.60
2019-02-19T07:49:01.784Z,2.50
2019-02-19T07:51:30.225Z,2.50
2019-02-19T07:54:00.749Z,2.50
2019-02-19T07:56:29.214Z,2.60
2019-02-19T07:58:57.655Z,2.70
2019-02-19T08:01:26.148Z,2.70
2019-02-19T08:03:55.324Z,2.70
2019-02-19T08:06:23.776Z,2.80
2019-02-19T08:08:52.242Z,2.70
2019-02-19T08:11:22.411Z,2.80
2019-02-19T08:13:53.729Z,2.70
2019-02-19T08:16:23.170Z,2.80
2019-02-19T08:18:52.128Z,2.90
2019-02-19T08:21:22.172Z,3.10
2019-02-19T08:23:52.737Z,3.40
2019-02-19T08:26:21.218Z,3.50
2019-02-19T08:28:49.710Z,3.60
2019-02-19T08:31:19.198Z,3.60
2019-02-19T08:33:49.496Z,3.60
2019-02-19T08:36:18.427Z,3.60
2019-02-19T08:38:48.005Z,3.60
2019-02-19T08:41:17.031Z,3.70
2019-02-19T08:43:46.315Z,4.00
2019-02-19T08:46:15.663Z,4.30
2019-02-19T08:48:44.245Z,4.50
2019-02-19T08:51:12.848Z,4.80
2019-02-19T08:53:41.314Z,5.30
2019-02-19T09:01:06.256Z,6.90
2019-02-19T09:03:34.703Z,7.10
2019-02-19T09:06:03.231Z,7.50
2019-02-19T09:08:32.107Z,7.90
2019-02-19T09:11:19.897Z,8.00
2019-02-19T09:13:48.385Z,8.40
2019-02-19T09:16:16.925Z,8.80
2019-02-19T09:18:45.384Z,9.00
2019-02-19T09:21:13.961Z,9.10
2019-02-19T09:23:42.488Z,8.80
2019-02-19T09:26:11.062Z,9.00
2019-02-19T09:28:39.522Z,9.40
2019-02-19T09:31:07.971Z,9.70
2019-02-19T09:33:36.443Z,9.60
2019-02-19T09:36:04.935Z,9.60
2019-02-19T09:38:33.375Z,9.70
2019-02-19T09:41:01.911Z,9.70
2019-02-19T09:43:35.509Z,9.70
2019-02-19T09:46:00.628Z,9.60
2019-02-19T09:48:29.068Z,9.40
2019-02-19T09:50:57.513Z,9.70
2019-02-19T09:53:26.044Z,10.40
2019-02-19T09:55:54.483Z,10.80
2019-02-19T09:58:22.947Z,11.00
2019-02-19T10:00:51.383Z,11.10
2019-02-19T10:03:19.911Z,11.00
2019-02-19T10:05:48.435Z,11.00
2019-02-19T10:08:17.176Z,11.20
2019-02-19T10:10:45.652Z,11.40
2019-02-19T10:13:14.178Z,11.60
2019-02-19T10:15:42.635Z,11.80
2019-02-19T10:18:11.076Z,11.70
2019-02-19T10:20:39.550Z,11.60
2019-02-19T10:23:07.988Z,11.60
2019-02-19T10:25:36.582Z,11.60
2019-02-19T10:28:05.310Z,11.90
2019-02-19T10:30:33.814Z,12.20
2019-02-19T10:33:02.278Z,12.50
2019-02-19T10:35:30.741Z,12.60
2019-02-19T10:37:59.270Z,12.70
2019-02-19T10:40:27.711Z,12.90
2019-02-19T10:42:56.176Z,13.00
2019-02-19T10:45:44.031Z,13.60
2019-02-19T10:48:18.784Z,13.90
2019-02-19T10:50:44.717Z,13.90
2019-02-19T10:53:16.211Z,13.90
2019-02-19T10:55:44.692Z,14.30
2019-02-19T10:58:13.146Z,14.90
2019-02-19T11:00:41.743Z,15.30
2019-02-19T11:03:10.212Z,15.90
2019-02-19T11:05:58.090Z,16.20
2019-02-19T11:08:29.251Z,15.80
2019-02-19T11:10:57.710Z,15.80
2019-02-19T11:13:29.935Z,16.00
2019-02-19T11:16:00.573Z,16.10
2019-02-19T11:18:29.311Z,16.70
2019-02-19T11:21:19.718Z,16.90
2019-02-19T11:24:07.391Z,16.70
2019-02-19T11:26:36.326Z,16.10
2019-02-19T11:29:05.935Z,15.90
2019-02-19T11:31:36.354Z,16.00
2019-02-19T11:34:04.823Z,16.10
2019-02-19T11:36:35.186Z,15.70
2019-02-19T11:39:16.311Z,15.00
2019-02-19T11:41:45.115Z,15.20
2019-02-19T11:44:13.605Z,15.40
2019-02-19T11:46:42.089Z,15.30
2019-02-19T11:49:10.535Z,15.00
2019-02-19T11:51:39.223Z,14.70
2019-02-19T11:54:07.719Z,14.30
2019-02-19T11:56:36.159Z,13.90
2019-02-19T11:59:04.794Z,14.00
2019-02-19T12:01:33.230Z,14.50
2019-02-19T12:04:01.690Z,15.70
2019-02-19T12:06:44.157Z,16.00
2019-02-19T12:09:00.513Z,15.90
2019-02-19T12:11:29.056Z,15.00
2019-02-19T12:13:57.491Z,14.40
2019-02-19T12:16:26.023Z,13.80
2019-02-19T12:18:54.540Z,13.30
2019-02-19T12:21:22.998Z,12.80
2019-02-19T12:23:51.438Z,12.40
2019-02-19T12:26:19.888Z,12.20
2019-02-19T12:28:48.342Z,11.90
2019-02-19T12:31:16.798Z,11.60
2019-02-19T12:33:45.323Z,11.40
2019-02-19T12:36:13.759Z,11.20
2019-02-19T12:38:42.219Z,11.10
2019-02-19T12:41:10.661Z,10.70
2019-02-19T12:43:58.458Z,10.60
2019-02-19T12:46:26.892Z,10.70
2019-02-19T12:48:55.331Z,10.50
2019-02-19T12:51:26.353Z,10.40
2019-02-19T12:53:53.970Z,10.30
2019-02-19T12:56:22.436Z,10.20
2019-02-19T12:58:50.884Z,10.20
2019-02-19T13:01:19.359Z,10.00
2019-02-19T13:03:47.799Z,10.00
2019-02-19T13:06:16.236Z,9.90
2019-02-19T13:08:44.692Z,9.80
2019-02-19T13:11:13.205Z,9.70
2019-02-19T13:13:41.741Z,9.60
2019-02-19T13:16:10.298Z,9.60
2019-02-19T13:18:38.827Z,9.60
2019-02-19T13:21:07.267Z,9.60
2019-02-19T13:23:35.771Z,9.60
2019-02-19T13:26:04.243Z,9.60
2019-02-19T13:28:32.738Z,9.50
2019-02-19T13:31:01.204Z,9.40
2019-02-19T13:33:29.632Z,9.30
2019-02-19T13:35:58.089Z,9.30
2019-02-19T13:38:26.522Z,9.20
2019-02-19T13:40:54.995Z,9.10
2019-02-19T13:43:23.429Z,9.20
2019-02-19T13:45:52.069Z,9.20
2019-02-19T13:48:20.538Z,9.30
2019-02-19T13:50:49.039Z,9.30
2019-02-19T13:53:19.740Z,9.30
2019-02-19T13:55:52.976Z,9.20
2019-02-19T13:58:22.992Z,9.20
2019-02-19T14:00:54.247Z,9.20
2019-02-19T14:03:25.040Z,9.20
2019-02-19T14:05:53.747Z,9.20
2019-02-19T14:08:22.364Z,9.20
2019-02-19T14:10:50.927Z,9.20
2019-02-19T14:13:19.656Z,9.20
2019-02-19T14:15:59.162Z,9.20
2019-02-19T14:18:45.546Z,9.30
2019-02-19T14:21:18.323Z,9.30
2019-02-19T14:23:48.387Z,9.40
2019-02-19T14:26:33.295Z,9.30
2019-02-19T14:29:21.303Z,9.30
2019-02-19T14:32:00.230Z,9.40
2019-02-19T14:34:39.152Z,9.30
2019-02-19T14:37:18.420Z,9.30
2019-02-19T14:39:54.282Z,9.40
2019-02-19T14:42:41.504Z,9.30
2019-02-19T14:48:33.021Z,9.20
2019-02-19T14:51:22.421Z,9.20
2019-02-19T14:53:51.334Z,9.20
2019-02-19T14:56:24.380Z,9.20
2019-02-19T14:59:06.622Z,9.10
2019-02-19T15:01:36.701Z,9.10
2019-02-19T15:04:23.201Z,9.20
2019-02-19T15:07:09.747Z,9.40
2019-02-19T15:09:56.187Z,9.40
2019-02-19T15:12:29.251Z,9.40
2019-02-19T15:14:59.400Z,9.40
2019-02-19T15:17:29.557Z,9.50
2019-02-19T15:20:15.630Z,9.60
2019-02-19T15:23:01.427Z,9.50
2019-02-19T15:25:46.571Z,9.50
2019-02-19T15:28:32.498Z,9.60
2019-02-19T15:31:18.986Z,9.60
2019-02-19T15:33:49.095Z,9.60
2019-02-19T15:36:31.023Z,9.60
2019-02-19T15:39:06.668Z,9.60
2019-02-19T15:41:36.821Z,9.60
2019-02-19T15:44:18.448Z,9.60
2019-02-19T15:46:54.547Z,9.60
2019-02-19T15:49:47.643Z,9.50
2019-02-19T15:52:25.029Z,9.50
2019-02-19T15:54:55.141Z,9.40
2019-02-19T15:57:27.845Z,9.30
2019-02-19T16:00:23.486Z,9.30
2019-02-19T16:02:53.571Z,9.20
2019-02-19T16:05:23.637Z,9.10
2019-02-19T16:10:29.061Z,9.00
2019-02-19T16:13:14.071Z,9.00
2019-02-19T16:15:44.159Z,9.00
2019-02-19T16:18:29.409Z,9.00
2019-02-19T16:21:15.474Z,9.00
2019-02-19T16:24:03.991Z,8.90
2019-02-19T16:26:49.124Z,8.90
2019-02-19T16:29:28.314Z,8.80
2019-02-19T16:32:01.522Z,8.80
2019-02-19T16:34:48.115Z,8.70
2019-02-19T16:37:18.269Z,8.60
2019-02-19T16:39:48.371Z,8.50
2019-02-19T16:42:24.212Z,8.40
2019-02-19T16:45:06.399Z,8.40
2019-02-19T16:47:48.595Z,8.30
2019-02-19T16:50:34.932Z,8.20
2019-02-19T16:53:05.094Z,8.20
2019-02-19T16:55:35.247Z,8.10
2019-02-19T16:58:05.350Z,8.00
2019-02-19T17:00:35.437Z,8.00
2019-02-19T17:03:23.741Z,7.90
2019-02-19T17:05:56.898Z,7.80
2019-02-19T17:08:30.231Z,7.80
2019-02-19T17:11:16.495Z,7.80
2019-02-19T17:13:46.602Z,7.70
2019-02-19T17:16:16.763Z,7.60
2019-02-19T17:18:58.611Z,7.50
2019-02-19T17:21:28.759Z,7.50
2019-02-19T17:24:04.900Z,7.40
2019-02-19T17:29:40.804Z,7.30
2019-02-19T17:32:20.266Z,7.30
2019-02-19T17:35:08.252Z,7.20
2019-02-19T17:37:53.442Z,7.20
2019-02-19T17:40:26.459Z,7.20
2019-02-19T17:42:56.539Z,7.10
2019-02-19T17:45:26.790Z,7.00
2019-02-19T17:48:16.301Z,7.00
2019-02-19T17:50:55.741Z,6.90
2019-02-19T17:53:25.921Z,6.90
2019-02-19T17:56:07.601Z,6.80
2019-02-19T17:58:53.547Z,6.70
2019-02-19T18:01:32.384Z,6.70
2019-02-19T18:04:18.761Z,6.60
2019-02-19T18:06:54.575Z,6.60
2019-02-19T18:09:42.626Z,6.50
2019-02-19T18:12:12.707Z,6.40
2019-02-19T18:17:30.264Z,6.00
2019-02-19T18:19:58.726Z,5.90
2019-02-19T18:22:27.489Z,5.90
2019-02-19T18:24:56.009Z,5.80
2019-02-19T18:27:24.524Z,5.70
2019-02-19T18:29:52.952Z,5.60
2019-02-19T18:32:21.478Z,5.50
2019-02-19T18:34:50.097Z,5.50
2019-02-19T18:37:18.587Z,5.50
2019-02-19T18:39:47.103Z,5.40
2019-02-19T18:42:15.598Z,5.20
2019-02-19T18:44:45.357Z,5.10
2019-02-19T18:47:14.243Z,4.90
2019-02-19T18:49:42.864Z,4.80
2019-02-19T18:52:11.380Z,4.50
2019-02-19T18:54:39.884Z,4.20
2019-02-19T18:57:08.424Z,4.00
2019-02-19T18:59:36.946Z,3.80
2019-02-19T19:02:05.469Z,3.60
2019-02-19T19:04:33.903Z,3.60
2019-02-19T19:07:02.362Z,3.60
2019-02-19T19:09:30.807Z,3.60
2019-02-19T19:11:59.272Z,3.60
2019-02-19T19:14:27.789Z,3.50
2019-02-19T19:16:56.254Z,3.50
2019-02-19T19:19:24.699Z,3.40
2019-02-19T19:21:53.133Z,3.40
2019-02-19T19:24:21.711Z,3.20
2019-02-19T19:26:50.145Z,3.20
2019-02-19T19:29:37.950Z,3.20
2019-02-19T19:32:06.388Z,3.20
2019-02-19T19:34:54.194Z,3.10
2019-02-19T19:37:22.882Z,3.00
2019-02-19T19:39:51.411Z,2.90
2019-02-19T19:42:20.375Z,2.80
2019-02-19T19:44:48.890Z,2.80
2019-02-19T19:47:17.481Z,2.80
2019-02-19T19:49:45.922Z,2.70
2019-02-19T19:52:14.396Z,2.70
2019-02-19T19:54:42.831Z,2.60
2019-02-19T19:57:11.280Z,2.60
2019-02-19T19:59:39.819Z,2.40
2019-02-19T20:02:08.276Z,2.40
2019-02-19T20:04:36.806Z,2.40
2019-02-19T20:07:05.321Z,2.30
2019-02-19T20:09:33.862Z,2.20
2019-02-19T20:12:02.306Z,2.10
2019-02-19T20:14:30.758Z,2.20
2019-02-19T20:16:59.276Z,2.10
2019-02-19T20:19:27.745Z,2.10
2019-02-19T20:21:56.249Z,2.00
2019-02-19T20:24:24.912Z,2.00
2019-02-19T20:26:53.402Z,2.00
2019-02-19T20:29:21.883Z,2.00
2019-02-19T20:31:50.338Z,2.00
2019-02-19T20:34:18.782Z,1.90
2019-02-19T20:36:47.249Z,1.90
2019-02-19T20:39:15.772Z,1.90
2019-02-19T20:41:44.313Z,1.80
2019-02-19T20:44:12.758Z,1.70
2019-02-19T20:46:41.299Z,1.60
2019-02-19T20:49:09.778Z,1.60
2019-02-19T20:51:38.246Z,1.70
2019-02-19T20:54:06.810Z,1.70
2019-02-19T20:56:35.538Z,1.70
2019-02-19T21:01:32.191Z,1.70
2019-02-19T21:04:00.636Z,1.50
2019-02-19T21:06:29.116Z,1.50
2019-02-19T21:08:57.568Z,1.50
2019-02-19T21:11:27.638Z,1.50
2019-02-19T21:13:56.330Z,1.40
2019-02-19T21:16:24.779Z,1.40
2019-02-19T21:18:53.313Z,1.40
2019-02-19T21:21:21.774Z,1.30
2019-02-19T21:23:50.459Z,1.30
2019-02-19T21:26:18.911Z,1.10
2019-02-19T21:28:47.371Z,1.10
2019-02-19T21:31:15.900Z,1.10
2019-02-19T21:33:44.350Z,1.10
2019-02-19T21:36:12.890Z,1.10
2019-02-19T21:38:41.339Z,1.00
2019-02-19T21:41:09.816Z,1.00
2019-02-19T21:43:38.332Z,0.90
2019-02-19T21:46:06.805Z,0.90
2019-02-19T21:48:35.328Z,0.90
2019-02-19T21:51:03.851Z,0.80
2019-02-19T21:53:32.308Z,0.80
2019-02-19T21:56:00.750Z,0.70
2019-02-19T21:58:29.299Z,0.60
2019-02-19T22:00:57.818Z,0.50
2019-02-19T22:03:26.286Z,0.50
2019-02-19T22:05:54.730Z,0.60
2019-02-19T22:08:23.180Z,0.60
2019-02-19T22:10:51.742Z,0.70
2019-02-19T22:13:20.192Z,0.70
2019-02-19T22:15:48.670Z,0.60
2019-02-19T22:18:17.110Z,0.60
2019-02-19T22:20:50.160Z,0.60
2019-02-19T22:23:18.679Z,0.50
2019-02-19T22:25:47.195Z,0.50
2019-02-19T22:28:15.691Z,0.50
2019-02-19T22:30:44.139Z,0.40
2019-02-19T22:33:12.611Z,0.40
2019-02-19T22:35:41.159Z,0.30
2019-02-19T22:38:28.958Z,0.30
2019-02-19T22:40:57.407Z,0.40
2019-02-19T22:43:25.849Z,0.30
2019-02-19T22:45:54.322Z,0.20
2019-02-19T22:48:22.779Z,0.20
2019-02-19T22:50:51.339Z,0.20
2019-02-19T22:53:37.814Z,0.20
2019-02-19T22:56:07.931Z,0.20
2019-02-19T22:58:36.384Z,0.20
2019-02-19T23:01:15.877Z,0.20
2019-02-19T23:03:44.527Z,0.10
2019-02-19T23:06:13.216Z,0.20
2019-02-19T23:08:41.679Z,0.10
2019-02-19T23:11:10.131Z,0.10
2019-02-19T23:13:38.693Z,0.10
2019-02-19T23:16:07.190Z,0.00
2019-02-19T23:18:35.661Z,0.00
2019-02-19T23:21:04.254Z,0.00
2019-02-19T23:23:33.071Z,0.10
2019-02-19T23:26:01.548Z,0.00
2019-02-19T23:28:30.086Z,0.00
2019-02-19T23:30:58.616Z,-0.10
2019-02-19T23:33:27.147Z,-0.20
2019-02-19T23:35:57.259Z,-0.20
2019-02-19T23:38:25.790Z,-0.30
2019-02-19T23:40:54.318Z,-0.20
2019-02-19T23:43:22.856Z,-0.20
2019-02-19T23:45:51.774Z,-0.20
2019-02-19T23:48:28.006Z,-0.20
2019-02-19T23:50:56.454Z,-0.30
2019-02-19T23:53:24.950Z,-0.30
2019-02-19T23:55:53.417Z,-0.20
2019-02-19T23:58:22.311Z,-0.20
